Main page
METAR-TAF:

METAR-TAF

Airports :

Charles de Gaulle Airport

Paris-Charles De Gaulle, France

latitude: 49-01N, longitude: 002-32E, elevation: 118 m

Current weather observation

The report was made 28 minutes ago, at 19:30 UTC
Wind 6 kt from the North/Northeast, varying between North and East
Temperature 20°C
Humidity 43%
Pressure 1015 hPa
Visibility 10 km or more
no clouds below 1500 m and no cumulonimbus

METAR: LFPG 211930Z 02006KT 010V090 CAVOK 20/07 Q1015 NOSIG

Time: 21:58 (19:58 UTC)

Forecast

The report was made 2 hours and 58 minutes ago, at 17:00 UTC
Forecast valid from 21 at 18 UTC to 22 at 24 UTC
Wind 5 kt from the North
Visibility 10 km or more
no clouds below 1500 m and no cumulonimbus
Becoming
from 22 at 10 UTC to 22 at 12 UTC
Wind 10 kt from the Southwest

TAF: LFPG 211700Z 2118/2224 01005KT CAVOK TX26/2215Z TN12/2206Z BECMG 2210/2212 22010KT

Weather observations and forecasts of more than 4000 airports (METAR and TAF reports).

The available stations are represented by yellow and red dots on the map.

Hover mouse over dot to see the name of the station.

Then click to see weather observations and forecasts.

To change the map : click on the green buttons with a black cross to zoom in, on the green button with a dash to zoom out, or on the green arrows for adjacent maps.


METAR-TAF: